createdAt,value
2018-10-21T00:00:24.280Z,22.90
2018-10-21T00:01:24.267Z,23.00
2018-10-21T00:02:24.307Z,22.80
2018-10-21T00:03:24.282Z,22.40
2018-10-21T00:04:24.217Z,23.40
2018-10-21T00:05:24.218Z,23.20
2018-10-21T00:06:24.209Z,23.10
2018-10-21T00:07:24.198Z,25.90
2018-10-21T00:08:24.181Z,22.20
2018-10-21T00:09:24.168Z,21.50
2018-10-21T00:10:24.166Z,25.20
2018-10-21T00:11:24.148Z,23.50
2018-10-21T00:12:24.140Z,23.20
2018-10-21T00:13:24.138Z,27.70
2018-10-21T00:14:24.137Z,24.50
2018-10-21T00:15:24.230Z,21.40
2018-10-21T00:16:24.103Z,23.30
2018-10-21T00:17:24.073Z,23.70
2018-10-21T00:18:24.070Z,23.40
2018-10-21T00:19:24.071Z,21.90
2018-10-21T00:20:24.053Z,24.20
2018-10-21T00:21:24.042Z,24.10
2018-10-21T00:22:24.034Z,27.20
2018-10-21T00:23:24.026Z,24.50
2018-10-21T00:24:24.000Z,24.50
2018-10-21T00:25:23.998Z,25.90
2018-10-21T00:26:23.985Z,23.80
2018-10-21T00:27:23.974Z,21.80
2018-10-21T00:28:23.968Z,24.50
2018-10-21T00:29:23.963Z,26.00
2018-10-21T00:30:23.953Z,25.50
2018-10-21T00:31:23.926Z,22.40
2018-10-21T00:32:23.918Z,26.20
2018-10-21T00:33:23.909Z,21.60
2018-10-21T00:34:23.892Z,22.30
2018-10-21T00:35:23.905Z,22.20
2018-10-21T00:36:23.871Z,24.10
2018-10-21T00:37:23.856Z,22.90
2018-10-21T00:38:23.855Z,28.00
2018-10-21T00:39:23.857Z,24.30
2018-10-21T00:40:23.837Z,24.30
2018-10-21T00:41:23.829Z,20.60
2018-10-21T00:42:23.812Z,22.80
2018-10-21T00:43:23.798Z,24.10
2018-10-21T00:44:23.799Z,25.90
2018-10-21T00:45:23.769Z,22.40
2018-10-21T00:46:23.762Z,22.50
2018-10-21T00:47:23.754Z,23.50
2018-10-21T00:48:23.752Z,24.10
2018-10-21T00:49:23.786Z,23.50
2018-10-21T00:50:23.725Z,23.80
2018-10-21T00:51:23.712Z,23.30
2018-10-21T00:52:23.746Z,27.10
2018-10-21T00:53:23.682Z,27.40
2018-10-21T00:54:23.690Z,24.90
2018-10-21T00:55:23.669Z,26.90
2018-10-21T00:56:23.652Z,23.20
2018-10-21T00:57:23.656Z,23.60
2018-10-21T00:58:23.633Z,24.30
2018-10-21T00:59:23.619Z,24.90
2018-10-21T01:00:23.614Z,24.90
2018-10-21T01:01:23.611Z,25.70
2018-10-21T01:02:23.608Z,24.30
2018-10-21T01:03:23.582Z,24.40
2018-10-21T01:04:23.563Z,24.60
2018-10-21T01:05:23.559Z,29.00
2018-10-21T01:06:23.563Z,26.40
2018-10-21T01:07:23.543Z,26.50
2018-10-21T01:08:23.532Z,23.00
2018-10-21T01:09:23.513Z,25.20
2018-10-21T01:10:23.508Z,25.50
2018-10-21T01:11:23.506Z,25.90
2018-10-21T01:12:23.477Z,26.20
2018-10-21T01:13:23.493Z,22.50
2018-10-21T01:14:23.460Z,26.10
2018-10-21T01:15:23.467Z,26.50
2018-10-21T01:16:23.439Z,25.80
2018-10-21T01:17:23.423Z,25.10
2018-10-21T01:18:23.424Z,26.80
2018-10-21T01:19:23.399Z,26.10
2018-10-21T01:20:23.408Z,24.60
2018-10-21T01:21:23.417Z,26.90
2018-10-21T01:22:23.371Z,24.90
2018-10-21T01:23:23.379Z,24.90
2018-10-21T01:24:23.358Z,26.50
2018-10-21T01:25:23.352Z,27.50
2018-10-21T01:26:23.325Z,24.00
2018-10-21T01:27:23.319Z,23.20
2018-10-21T01:28:23.320Z,24.80
2018-10-21T01:29:23.301Z,24.80
2018-10-21T01:30:23.280Z,23.50
2018-10-21T01:31:23.277Z,25.00
2018-10-21T01:32:23.275Z,25.10
2018-10-21T01:33:23.266Z,23.00
2018-10-21T01:34:23.235Z,27.00
2018-10-21T01:35:23.227Z,24.20
2018-10-21T01:36:23.460Z,28.00
2018-10-21T01:37:23.222Z,21.90
2018-10-21T01:38:23.271Z,23.60
2018-10-21T01:39:23.192Z,20.20
2018-10-21T01:40:23.173Z,22.40
2018-10-21T01:41:23.159Z,22.40
2018-10-21T01:42:23.156Z,20.90
2018-10-21T01:43:23.162Z,24.80
2018-10-21T01:44:23.136Z,21.90
2018-10-21T01:45:23.118Z,21.30
2018-10-21T01:46:23.112Z,21.50
2018-10-21T01:47:23.103Z,21.40
2018-10-21T01:48:23.123Z,22.70
2018-10-21T01:49:23.080Z,22.30
2018-10-21T01:50:23.070Z,23.30
2018-10-21T01:51:23.060Z,25.90
2018-10-21T01:52:23.097Z,22.20
2018-10-21T01:53:23.049Z,21.70
2018-10-21T01:54:23.028Z,21.10
2018-10-21T01:55:23.019Z,21.00
2018-10-21T01:56:23.005Z,23.60
2018-10-21T01:57:23.012Z,24.90
2018-10-21T01:58:22.977Z,23.30
2018-10-21T01:59:22.969Z,24.60
2018-10-21T02:00:22.962Z,24.60
2018-10-21T02:01:22.949Z,23.70
2018-10-21T02:02:22.945Z,24.90
2018-10-21T02:03:22.952Z,23.90
2018-10-21T02:04:22.912Z,23.80
2018-10-21T02:05:22.908Z,26.10
2018-10-21T02:06:22.893Z,23.80
2018-10-21T02:07:22.895Z,23.70
2018-10-21T02:08:22.877Z,23.90
2018-10-21T02:09:22.881Z,23.50
2018-10-21T02:10:22.848Z,23.20
2018-10-21T02:11:22.856Z,25.00
2018-10-21T02:12:22.834Z,22.10
2018-10-21T02:13:22.861Z,24.40
2018-10-21T02:14:22.814Z,23.20
2018-10-21T02:15:22.801Z,21.30
2018-10-21T02:16:22.780Z,22.40
2018-10-21T02:17:22.789Z,22.00
2018-10-21T02:18:22.765Z,24.30
2018-10-21T02:19:22.752Z,23.00
2018-10-21T02:20:22.757Z,22.50
2018-10-21T02:21:22.735Z,22.70
2018-10-21T02:22:22.734Z,21.50
2018-10-21T02:23:22.709Z,24.00
2018-10-21T02:24:22.708Z,24.60
2018-10-21T02:25:22.700Z,23.00
2018-10-21T02:26:22.721Z,22.20
2018-10-21T02:27:22.674Z,22.80
2018-10-21T02:28:22.691Z,23.00
2018-10-21T02:29:22.661Z,26.30
2018-10-21T02:30:22.633Z,24.20
2018-10-21T02:31:22.628Z,21.70
2018-10-21T02:32:22.618Z,23.30
2018-10-21T02:33:22.707Z,25.60
2018-10-21T02:34:22.609Z,24.30
2018-10-21T02:35:22.589Z,26.60
2018-10-21T02:36:22.581Z,24.40
2018-10-21T02:37:22.563Z,24.60
2018-10-21T02:38:22.551Z,21.80
2018-10-21T02:39:22.565Z,22.70
2018-10-21T02:40:22.530Z,24.40
2018-10-21T02:41:22.518Z,22.80
2018-10-21T02:42:22.525Z,25.80
2018-10-21T02:43:22.513Z,24.60
2018-10-21T02:44:22.481Z,28.10
2018-10-21T02:45:22.478Z,25.80
2018-10-21T02:46:22.479Z,25.10
2018-10-21T02:47:22.465Z,22.40
2018-10-21T02:48:22.436Z,22.20
2018-10-21T02:49:22.439Z,22.30
2018-10-21T02:50:22.444Z,20.90
2018-10-21T02:51:22.410Z,27.20
2018-10-21T02:52:22.417Z,21.70
2018-10-21T02:53:22.404Z,24.10
2018-10-21T02:54:22.372Z,22.80
2018-10-21T02:55:22.394Z,23.50
2018-10-21T02:56:22.350Z,25.80
2018-10-21T02:57:22.474Z,23.50
2018-10-21T02:58:22.335Z,21.50
2018-10-21T02:59:22.347Z,26.50
2018-10-21T03:00:22.327Z,24.70
2018-10-21T03:01:22.300Z,23.80
2018-10-21T03:02:22.291Z,24.90
2018-10-21T03:03:22.303Z,23.30
2018-10-21T03:04:22.274Z,23.70
2018-10-21T03:05:22.257Z,22.30
2018-10-21T03:06:22.250Z,23.50
2018-10-21T03:07:22.234Z,24.70
2018-10-21T03:08:22.224Z,22.30
2018-10-21T03:09:22.274Z,23.30
2018-10-21T03:10:22.223Z,27.60
2018-10-21T03:11:22.204Z,20.50
2018-10-21T03:12:22.194Z,25.30
2018-10-21T03:13:22.170Z,22.70
2018-10-21T03:14:22.159Z,24.60
2018-10-21T03:15:22.159Z,23.80
2018-10-21T03:16:22.140Z,24.70
2018-10-21T03:17:22.143Z,23.30
2018-10-21T03:18:22.144Z,25.50
2018-10-21T03:19:22.106Z,24.90
2018-10-21T03:20:22.133Z,24.50
2018-10-21T03:21:22.213Z,24.00
2018-10-21T03:22:22.077Z,22.60
2018-10-21T03:23:22.083Z,22.00
2018-10-21T03:24:22.058Z,23.70
2018-10-21T03:25:22.047Z,23.40
2018-10-21T03:26:22.043Z,25.20
2018-10-21T03:27:22.020Z,23.50
2018-10-21T03:28:22.016Z,22.20
2018-10-21T03:29:22.011Z,21.30
2018-10-21T03:30:22.004Z,24.30
2018-10-21T03:31:22.005Z,21.10
2018-10-21T03:32:21.965Z,23.70
2018-10-21T03:33:22.237Z,21.70
2018-10-21T03:34:21.951Z,23.70
2018-10-21T03:35:21.950Z,20.90
2018-10-21T03:36:21.937Z,22.50
2018-10-21T03:37:21.921Z,24.50
2018-10-21T03:38:21.910Z,23.10
2018-10-21T03:39:21.893Z,20.80
2018-10-21T03:40:21.886Z,21.20
2018-10-21T03:41:21.875Z,25.40
2018-10-21T03:42:21.929Z,23.50
2018-10-21T03:43:21.857Z,23.20
2018-10-21T03:44:21.843Z,21.20
2018-10-21T03:45:21.834Z,21.00
2018-10-21T03:46:21.828Z,22.50
2018-10-21T03:47:21.844Z,23.90
2018-10-21T03:48:21.809Z,23.50
2018-10-21T03:49:21.784Z,26.10
2018-10-21T03:50:21.769Z,23.10
2018-10-21T03:51:21.770Z,23.70
2018-10-21T03:52:21.757Z,23.40
2018-10-21T03:53:21.774Z,26.10
2018-10-21T03:54:21.745Z,26.70
2018-10-21T03:55:21.733Z,22.00
2018-10-21T03:56:21.709Z,25.00
2018-10-21T03:57:21.700Z,27.40
2018-10-21T03:58:21.695Z,24.30
2018-10-21T03:59:21.684Z,21.40
2018-10-21T04:00:21.668Z,24.20
2018-10-21T04:01:21.675Z,24.00
2018-10-21T04:02:21.669Z,23.90
2018-10-21T04:03:21.647Z,23.50
2018-10-21T04:04:21.623Z,23.20
2018-10-21T04:05:21.618Z,25.20
2018-10-21T04:06:21.608Z,22.80
2018-10-21T04:07:21.589Z,24.20
2018-10-21T04:08:21.596Z,21.90
2018-10-21T04:09:21.584Z,20.60
2018-10-21T04:10:21.570Z,22.50
2018-10-21T04:11:21.563Z,24.40
2018-10-21T04:12:21.540Z,23.90
2018-10-21T04:13:21.530Z,24.40
2018-10-21T04:14:21.540Z,21.60
2018-10-21T04:15:21.524Z,24.10
2018-10-21T04:16:21.520Z,25.00
2018-10-21T04:17:21.497Z,22.20
2018-10-21T04:18:21.476Z,23.40
2018-10-21T04:19:21.469Z,24.20
2018-10-21T04:20:21.467Z,23.10
2018-10-21T04:21:21.441Z,20.20
2018-10-21T04:22:21.428Z,23.50
2018-10-21T04:23:21.457Z,21.80
2018-10-21T04:24:21.422Z,22.50
2018-10-21T04:25:21.410Z,23.00
2018-10-21T04:26:21.392Z,24.30
2018-10-21T04:27:21.372Z,22.40
2018-10-21T04:28:21.500Z,25.30
2018-10-21T04:29:21.372Z,27.20
2018-10-21T04:30:21.351Z,22.10
2018-10-21T04:31:21.339Z,24.10
2018-10-21T04:32:21.324Z,23.80
2018-10-21T04:33:21.323Z,22.90
2018-10-21T04:34:21.323Z,21.30
2018-10-21T04:35:21.326Z,25.00
2018-10-21T04:36:21.278Z,21.90
2018-10-21T04:37:21.270Z,25.90
2018-10-21T04:38:21.266Z,22.70
2018-10-21T04:39:21.272Z,23.30
2018-10-21T04:40:21.238Z,26.50
2018-10-21T04:41:21.249Z,21.50
2018-10-21T04:42:21.220Z,22.30
2018-10-21T04:43:21.217Z,25.20
2018-10-21T04:44:21.216Z,22.50
2018-10-21T04:45:21.182Z,25.80
2018-10-21T04:46:21.206Z,23.20
2018-10-21T04:47:21.154Z,22.20
2018-10-21T04:48:21.149Z,20.40
2018-10-21T04:49:21.135Z,25.20
2018-10-21T04:50:21.139Z,23.00
2018-10-21T04:51:21.128Z,22.20
2018-10-21T04:52:22.851Z,24.80
2018-10-21T04:53:21.101Z,24.10
2018-10-21T04:54:21.080Z,23.50
2018-10-21T04:55:21.093Z,24.20
2018-10-21T04:56:21.063Z,23.30
2018-10-21T04:57:21.062Z,22.50
2018-10-21T04:58:21.046Z,25.40
2018-10-21T04:59:21.024Z,24.50
2018-10-21T05:00:21.025Z,24.90
2018-10-21T05:01:21.016Z,23.20
2018-10-21T05:02:21.016Z,26.70
2018-10-21T05:03:21.006Z,23.50
2018-10-21T05:04:20.985Z,22.10
2018-10-21T05:05:20.977Z,25.60
2018-10-21T05:06:20.971Z,26.30
2018-10-21T05:07:20.960Z,24.20
2018-10-21T05:08:20.933Z,21.40
2018-10-21T05:09:20.921Z,22.90
2018-10-21T05:10:20.928Z,22.70
2018-10-21T05:11:20.907Z,25.60
2018-10-21T05:12:20.898Z,23.40
2018-10-21T05:13:20.877Z,22.40
2018-10-21T05:14:20.863Z,23.80
2018-10-21T05:15:20.929Z,24.60
2018-10-21T05:16:20.924Z,23.80
2018-10-21T05:17:20.838Z,23.80
2018-10-21T05:18:20.825Z,23.20
2018-10-21T05:19:20.806Z,26.10
2018-10-21T05:20:20.797Z,25.40
2018-10-21T05:21:20.785Z,23.00
2018-10-21T05:22:20.788Z,22.10
2018-10-21T05:23:20.783Z,23.40
2018-10-21T05:24:20.763Z,23.40
2018-10-21T05:25:20.743Z,25.50
2018-10-21T05:26:20.744Z,25.20
2018-10-21T05:27:20.742Z,24.40
2018-10-21T05:28:20.714Z,25.20
2018-10-21T05:29:20.703Z,26.40
2018-10-21T05:30:20.703Z,26.90
2018-10-21T05:31:20.685Z,24.00
2018-10-21T05:32:20.695Z,25.90
2018-10-21T05:33:20.658Z,27.00
2018-10-21T05:34:20.644Z,22.90
2018-10-21T05:35:20.642Z,27.40
2018-10-21T05:36:20.628Z,24.40
2018-10-21T05:37:20.630Z,26.40
2018-10-21T05:38:20.624Z,25.50
2018-10-21T05:39:20.590Z,25.70
2018-10-21T05:40:20.603Z,23.60
2018-10-21T05:41:20.574Z,26.00
2018-10-21T05:42:20.583Z,24.60
2018-10-21T05:43:20.547Z,23.30
2018-10-21T05:44:20.545Z,25.20
2018-10-21T05:45:20.540Z,23.40
2018-10-21T05:46:20.521Z,25.50
2018-10-21T05:47:20.627Z,27.70
2018-10-21T05:48:20.542Z,21.70
2018-10-21T05:49:20.495Z,21.30
2018-10-21T05:50:20.480Z,26.40
2018-10-21T05:51:20.467Z,25.30
2018-10-21T05:52:20.811Z,25.80
2018-10-21T05:53:20.452Z,24.00
2018-10-21T05:54:20.436Z,22.80
2018-10-21T05:55:20.429Z,21.10
2018-10-21T05:56:20.431Z,23.80
2018-10-21T05:57:20.400Z,21.90
2018-10-21T05:58:20.497Z,24.00
2018-10-21T05:59:20.381Z,25.90
2018-10-21T06:00:20.373Z,22.10
2018-10-21T06:01:20.369Z,28.10
2018-10-21T06:02:20.357Z,21.40
2018-10-21T06:03:20.341Z,23.50
2018-10-21T06:04:20.335Z,23.60
2018-10-21T06:05:20.311Z,20.30
2018-10-21T06:06:20.308Z,20.70
2018-10-21T06:07:20.294Z,22.00
2018-10-21T06:08:20.290Z,22.40
2018-10-21T06:09:20.287Z,24.10
2018-10-21T06:10:20.272Z,21.30
2018-10-21T06:11:20.278Z,22.50
2018-10-21T06:12:20.237Z,23.80
2018-10-21T06:13:20.233Z,22.30
2018-10-21T06:14:20.237Z,23.10
2018-10-21T06:15:20.209Z,21.20
2018-10-21T06:16:20.239Z,23.90
2018-10-21T06:17:20.206Z,25.90
2018-10-21T06:18:20.176Z,24.40
2018-10-21T06:19:20.187Z,23.30
2018-10-21T06:20:20.159Z,22.70
2018-10-21T06:21:20.160Z,21.50
2018-10-21T06:22:20.137Z,22.30
2018-10-21T06:23:20.138Z,19.40
2018-10-21T06:24:20.117Z,21.10
2018-10-21T06:25:20.116Z,18.50
2018-10-21T06:26:20.088Z,23.00
2018-10-21T06:27:20.080Z,21.10
2018-10-21T06:28:20.087Z,23.00
2018-10-21T06:29:20.057Z,20.90
2018-10-21T06:30:20.073Z,19.30
2018-10-21T06:31:20.035Z,21.30
2018-10-21T06:32:20.030Z,23.40
2018-10-21T06:33:20.019Z,21.10
2018-10-21T06:34:20.023Z,23.30
2018-10-21T06:35:19.992Z,20.60
2018-10-21T06:36:20.010Z,18.40
2018-10-21T06:37:19.965Z,21.40
2018-10-21T06:38:19.960Z,21.40
2018-10-21T06:39:19.950Z,19.40
2018-10-21T06:40:19.960Z,20.20
2018-10-21T06:41:19.933Z,21.60
2018-10-21T06:42:19.935Z,20.90
2018-10-21T06:43:19.903Z,22.90
2018-10-21T06:44:19.889Z,19.90
2018-10-21T06:45:19.956Z,20.80
2018-10-21T06:46:19.890Z,20.20
2018-10-21T06:47:19.883Z,21.50
2018-10-21T06:48:19.910Z,20.70
2018-10-21T06:49:19.836Z,21.30
2018-10-21T06:50:19.831Z,22.50
2018-10-21T06:51:19.833Z,22.00
2018-10-21T06:52:19.811Z,23.70
2018-10-21T06:53:19.801Z,22.20
2018-10-21T06:54:19.793Z,21.50
2018-10-21T06:55:19.777Z,20.50
2018-10-21T06:56:19.817Z,21.50
2018-10-21T06:57:19.942Z,22.40
2018-10-21T06:58:19.742Z,20.00
2018-10-21T06:59:19.735Z,18.70
2018-10-21T07:00:19.735Z,19.60
2018-10-21T07:01:19.710Z,22.10
2018-10-21T07:02:19.732Z,19.40
2018-10-21T07:03:19.689Z,16.10
2018-10-21T07:04:19.777Z,19.00
2018-10-21T07:05:19.679Z,17.10
2018-10-21T07:06:19.660Z,17.60
2018-10-21T07:07:19.654Z,16.00
2018-10-21T07:08:19.644Z,16.80
2018-10-21T07:09:19.621Z,16.40
2018-10-21T07:10:19.624Z,19.40
2018-10-21T07:11:19.614Z,17.00
2018-10-21T07:12:19.592Z,17.10
2018-10-21T07:13:19.590Z,17.50
2018-10-21T07:14:19.588Z,14.90
2018-10-21T07:15:19.663Z,17.70
2018-10-21T07:16:19.753Z,18.00
2018-10-21T07:17:19.538Z,14.30
2018-10-21T07:18:19.524Z,14.90
2018-10-21T07:19:19.524Z,18.20
2018-10-21T07:20:19.500Z,16.10
2018-10-21T07:21:19.494Z,15.50
2018-10-21T07:22:19.495Z,16.10
2018-10-21T07:23:19.477Z,16.10
2018-10-21T07:24:19.487Z,16.00
2018-10-21T07:25:19.460Z,16.10
2018-10-21T07:26:19.435Z,16.20
2018-10-21T07:27:19.432Z,15.90
2018-10-21T07:28:19.538Z,14.70
2018-10-21T07:29:19.410Z,15.80
2018-10-21T07:30:19.393Z,15.80
2018-10-21T07:31:19.395Z,14.80
2018-10-21T07:32:19.372Z,16.10
2018-10-21T07:33:19.383Z,13.60
2018-10-21T07:34:19.456Z,15.00
2018-10-21T07:35:19.337Z,16.30
2018-10-21T07:36:19.380Z,14.40
2018-10-21T07:37:19.319Z,13.40
2018-10-21T07:38:19.304Z,15.10
2018-10-21T07:39:19.293Z,14.40
2018-10-21T07:40:19.398Z,16.80
2018-10-21T07:41:19.281Z,15.30
2018-10-21T07:42:19.267Z,15.00
2018-10-21T07:43:19.262Z,13.90
2018-10-21T07:44:19.249Z,16.20
2018-10-21T07:45:19.231Z,15.30
2018-10-21T07:46:19.334Z,14.40
2018-10-21T07:47:19.223Z,14.60
2018-10-21T07:48:19.189Z,16.00
2018-10-21T07:49:19.186Z,13.30
2018-10-21T07:50:19.173Z,15.00
2018-10-21T07:51:19.174Z,14.20
2018-10-21T07:52:19.182Z,15.60
2018-10-21T07:53:19.137Z,13.80
2018-10-21T07:54:19.127Z,14.80
2018-10-21T07:55:19.202Z,14.50
2018-10-21T07:56:19.138Z,14.90
2018-10-21T07:57:19.099Z,16.60
2018-10-21T07:58:19.096Z,17.30
2018-10-21T07:59:19.072Z,15.90
2018-10-21T08:00:19.058Z,15.80
2018-10-21T08:01:19.085Z,15.10
2018-10-21T08:02:19.056Z,15.60
2018-10-21T08:03:19.031Z,15.80
2018-10-21T08:04:19.027Z,15.20
2018-10-21T08:05:19.005Z,16.90
2018-10-21T08:06:19.002Z,15.60
2018-10-21T08:07:18.987Z,16.20
2018-10-21T08:08:18.995Z,15.10
2018-10-21T08:09:18.991Z,15.80
2018-10-21T08:10:18.959Z,15.70
2018-10-21T08:11:18.942Z,16.50
2018-10-21T08:12:18.927Z,16.70
2018-10-21T08:13:18.915Z,17.20
2018-10-21T08:14:18.919Z,16.50
2018-10-21T08:15:18.999Z,17.60
2018-10-21T08:16:19.013Z,17.10
2018-10-21T08:17:18.896Z,17.20
2018-10-21T08:18:18.866Z,17.20
2018-10-21T08:19:18.874Z,15.90
2018-10-21T08:20:18.839Z,15.90
2018-10-21T08:21:18.958Z,16.60
2018-10-21T08:22:18.848Z,17.00
2018-10-21T08:23:18.809Z,16.80
2018-10-21T08:24:18.818Z,14.10
2018-10-21T08:25:18.785Z,18.30
2018-10-21T08:26:18.794Z,16.00
2018-10-21T08:27:18.842Z,16.20
2018-10-21T08:28:18.938Z,16.00
2018-10-21T08:29:18.755Z,16.20
2018-10-21T08:30:18.743Z,16.50
2018-10-21T08:31:18.722Z,15.80
2018-10-21T08:32:18.740Z,16.90
2018-10-21T08:33:18.701Z,16.00
2018-10-21T08:34:18.835Z,16.40
2018-10-21T08:35:18.692Z,14.50
2018-10-21T08:36:18.672Z,15.80
2018-10-21T08:37:18.664Z,16.10
2018-10-21T08:38:18.644Z,15.60
2018-10-21T08:39:18.636Z,17.80
2018-10-21T08:40:18.628Z,16.50
2018-10-21T08:41:18.645Z,16.40
2018-10-21T08:42:18.616Z,14.60
2018-10-21T08:43:18.589Z,15.70
2018-10-21T08:44:18.590Z,14.90
2018-10-21T08:45:18.570Z,15.70
2018-10-21T08:46:18.646Z,15.40
2018-10-21T08:47:18.562Z,16.00
2018-10-21T08:48:18.554Z,17.10
2018-10-21T08:49:18.595Z,18.80
2018-10-21T08:50:18.516Z,16.90
2018-10-21T08:51:18.502Z,18.00
2018-10-21T08:52:18.699Z,17.50
2018-10-21T08:53:18.493Z,18.20
2018-10-21T08:54:18.479Z,19.10
2018-10-21T08:55:18.475Z,20.40
2018-10-21T08:56:18.446Z,19.40
2018-10-21T08:57:18.433Z,16.80
2018-10-21T08:58:18.576Z,17.80
2018-10-21T08:59:18.420Z,20.40
2018-10-21T09:00:18.419Z,19.80
2018-10-21T09:01:18.495Z,20.40
2018-10-21T09:02:18.383Z,21.20
2018-10-21T09:03:18.404Z,18.10
2018-10-21T09:04:18.561Z,19.80
2018-10-21T09:05:18.390Z,18.20
2018-10-21T09:06:18.343Z,20.20
2018-10-21T09:07:18.335Z,20.50
2018-10-21T09:08:18.322Z,21.40
2018-10-21T09:09:18.300Z,19.30
2018-10-21T09:10:18.444Z,17.50
2018-10-21T09:11:18.284Z,20.50
2018-10-21T09:12:18.275Z,21.30
2018-10-21T09:13:18.274Z,22.40
2018-10-21T09:14:18.267Z,22.10
2018-10-21T09:15:18.454Z,20.20
2018-10-21T09:16:18.361Z,20.30
2018-10-21T09:17:18.218Z,20.40
2018-10-21T09:18:18.216Z,21.30
2018-10-21T09:19:18.286Z,21.70
2018-10-21T09:20:18.201Z,21.60
2018-10-21T09:21:18.176Z,21.30
2018-10-21T09:22:18.260Z,22.10
2018-10-21T09:23:18.149Z,21.10
2018-10-21T09:24:18.148Z,23.40
2018-10-21T09:25:18.233Z,23.20
2018-10-21T09:26:18.121Z,22.70
2018-10-21T09:27:18.116Z,23.80
2018-10-21T09:28:18.091Z,23.50
2018-10-21T09:29:18.094Z,26.00
2018-10-21T09:30:18.086Z,23.70
2018-10-21T09:31:18.160Z,25.40
2018-10-21T09:32:18.059Z,23.20
2018-10-21T09:33:18.114Z,23.50
2018-10-21T09:34:18.148Z,23.00
2018-10-21T09:35:18.040Z,24.40
2018-10-21T09:36:18.004Z,22.50
2018-10-21T09:37:17.993Z,22.20
2018-10-21T09:38:17.992Z,23.80
2018-10-21T09:39:17.977Z,23.20
2018-10-21T09:40:18.040Z,24.90
2018-10-21T09:41:17.968Z,25.10
2018-10-21T09:42:18.104Z,20.20
2018-10-21T09:43:18.002Z,22.40
2018-10-21T09:44:17.929Z,22.30
2018-10-21T09:45:17.916Z,21.60
2018-10-21T09:46:18.004Z,21.40
2018-10-21T09:47:17.897Z,22.30
2018-10-21T09:48:17.873Z,22.30
2018-10-21T09:49:18.015Z,22.00
2018-10-21T09:50:17.859Z,21.40
2018-10-21T09:51:17.879Z,22.10
2018-10-21T09:52:17.929Z,21.60
2018-10-21T09:53:17.841Z,19.70
2018-10-21T09:54:17.830Z,20.40
2018-10-21T09:55:17.801Z,22.50
2018-10-21T09:56:17.785Z,21.50
2018-10-21T09:57:17.793Z,23.60
2018-10-21T09:58:17.804Z,22.70
2018-10-21T09:59:17.764Z,19.80
2018-10-21T10:00:17.742Z,20.60
2018-10-21T10:01:17.825Z,21.20
2018-10-21T10:02:17.732Z,19.00
2018-10-21T10:03:17.717Z,19.20
2018-10-21T10:04:17.799Z,18.40
2018-10-21T10:05:17.771Z,21.70
2018-10-21T10:06:17.672Z,18.00
2018-10-21T10:07:17.832Z,20.50
2018-10-21T10:08:17.664Z,18.80
2018-10-21T10:09:17.646Z,20.40
2018-10-21T10:10:17.712Z,20.40
2018-10-21T10:11:17.617Z,18.80
2018-10-21T10:12:17.608Z,19.60
2018-10-21T10:13:17.659Z,17.20
2018-10-21T10:14:17.590Z,17.10
2018-10-21T10:15:17.574Z,20.50
2018-10-21T10:16:17.606Z,20.70
2018-10-21T10:17:17.566Z,20.30
2018-10-21T10:18:17.541Z,23.80
2018-10-21T10:19:17.591Z,19.50
2018-10-21T10:20:17.525Z,20.80
2018-10-21T10:21:17.512Z,19.20
2018-10-21T10:22:17.555Z,20.00
2018-10-21T10:23:17.547Z,21.20
2018-10-21T10:24:17.478Z,22.00
2018-10-21T10:25:17.482Z,21.40
2018-10-21T10:26:17.450Z,19.70
2018-10-21T10:27:17.466Z,20.80
2018-10-21T10:28:17.582Z,19.50
2018-10-21T10:29:17.419Z,21.40
2018-10-21T10:30:17.426Z,20.20
2018-10-21T10:31:17.429Z,20.70
2018-10-21T10:32:17.391Z,20.00
2018-10-21T10:33:17.379Z,19.00
2018-10-21T10:34:17.480Z,19.30
2018-10-21T10:35:17.351Z,19.80
2018-10-21T10:36:17.428Z,18.20
2018-10-21T10:37:17.334Z,18.90
2018-10-21T10:38:17.317Z,20.60
2018-10-21T10:39:17.327Z,18.70
2018-10-21T10:40:17.417Z,21.60
2018-10-21T10:41:17.309Z,19.90
2018-10-21T10:42:17.418Z,25.10
2018-10-21T10:43:17.352Z,32.30
2018-10-21T10:44:17.264Z,27.40
2018-10-21T10:45:17.252Z,31.30
2018-10-21T10:46:17.297Z,29.40
2018-10-21T10:47:17.220Z,26.80
2018-10-21T10:48:17.223Z,25.20
2018-10-21T10:49:17.333Z,27.60
2018-10-21T10:50:17.190Z,26.30
2018-10-21T10:51:17.183Z,24.60
2018-10-21T10:52:17.269Z,23.80
2018-10-21T10:53:17.158Z,22.70
2018-10-21T10:54:17.176Z,23.30
2018-10-21T10:55:17.257Z,19.60
2018-10-21T10:56:17.125Z,18.80
2018-10-21T10:57:17.112Z,18.90
2018-10-21T10:58:17.128Z,18.00
2018-10-21T10:59:17.099Z,18.80
2018-10-21T11:00:17.370Z,16.70
2018-10-21T11:01:17.099Z,15.90
2018-10-21T11:02:17.054Z,16.40
2018-10-21T11:03:17.073Z,15.20
2018-10-21T11:04:17.120Z,13.90
2018-10-21T11:05:17.033Z,14.80
2018-10-21T11:06:17.114Z,14.30
2018-10-21T11:07:17.039Z,15.40
2018-10-21T11:08:17.013Z,16.10
2018-10-21T11:09:16.983Z,12.20
2018-10-21T11:10:17.043Z,12.50
2018-10-21T11:11:16.967Z,10.60
2018-10-21T11:12:16.954Z,10.00
2018-10-21T11:13:17.090Z,9.80
2018-10-21T11:14:16.948Z,7.80
2018-10-21T11:15:16.922Z,8.90
2018-10-21T11:16:17.001Z,9.40
2018-10-21T11:17:16.909Z,10.30
2018-10-21T11:18:16.892Z,9.20
2018-10-21T11:19:16.949Z,9.00
2018-10-21T11:20:16.869Z,9.40
2018-10-21T11:21:16.856Z,8.50
2018-10-21T11:22:16.921Z,6.90
2018-10-21T11:23:16.842Z,10.00
2018-10-21T11:24:16.840Z,6.90
2018-10-21T11:25:16.931Z,7.20
2018-10-21T11:26:16.828Z,7.20
2018-10-21T11:27:16.790Z,6.60
2018-10-21T11:28:16.932Z,6.90
2018-10-21T11:29:16.772Z,8.00
2018-10-21T11:30:16.768Z,6.10
2018-10-21T11:31:16.826Z,8.80
2018-10-21T11:32:16.741Z,7.90
2018-10-21T11:33:16.733Z,7.00
2018-10-21T11:34:16.770Z,7.80
2018-10-21T11:35:16.730Z,8.20
2018-10-21T11:36:16.719Z,6.50
2018-10-21T11:37:16.812Z,8.90
2018-10-21T11:38:16.685Z,6.60
2018-10-21T11:39:16.676Z,8.30
2018-10-21T11:40:16.693Z,6.50
2018-10-21T11:42:16.625Z,8.50
2018-10-21T11:43:16.701Z,7.50
2018-10-21T11:44:16.608Z,9.10
2018-10-21T11:45:16.622Z,9.80
2018-10-21T11:46:16.696Z,8.00
2018-10-21T11:47:16.570Z,6.80
2018-10-21T11:48:16.574Z,8.70
2018-10-21T11:49:16.617Z,7.20
2018-10-21T11:50:16.557Z,7.20
2018-10-21T11:51:16.539Z,7.50
2018-10-21T11:52:16.544Z,5.90
2018-10-21T11:53:16.507Z,6.00
2018-10-21T11:54:16.494Z,7.60
2018-10-21T11:55:16.571Z,6.90
2018-10-21T11:56:16.478Z,8.00
2018-10-21T11:57:16.480Z,5.90
2018-10-21T11:58:16.674Z,6.20
2018-10-21T11:59:16.466Z,7.10
2018-10-21T12:00:16.431Z,6.40
2018-10-21T12:01:16.551Z,7.50
2018-10-21T12:02:16.410Z,8.40
2018-10-21T12:03:16.418Z,6.60
2018-10-21T12:04:16.529Z,6.30
2018-10-21T12:05:16.384Z,7.10
2018-10-21T12:06:16.376Z,8.30
2018-10-21T12:07:16.435Z,6.50
2018-10-21T12:08:16.349Z,5.40
2018-10-21T12:09:16.344Z,6.60
2018-10-21T12:10:16.372Z,6.10
2018-10-21T12:11:16.321Z,4.10
2018-10-21T12:12:16.309Z,6.30
2018-10-21T12:13:16.402Z,7.20
2018-10-21T12:14:16.279Z,6.30
2018-10-21T12:15:16.284Z,6.60
2018-10-21T12:16:16.372Z,8.10
2018-10-21T12:17:16.264Z,6.90
2018-10-21T12:18:16.243Z,5.70
2018-10-21T12:19:16.229Z,5.60
2018-10-21T12:20:16.218Z,4.20
2018-10-21T12:21:16.224Z,3.80
2018-10-21T12:22:16.359Z,4.80
2018-10-21T12:23:16.202Z,3.30
2018-10-21T12:24:16.172Z,5.50
2018-10-21T12:25:16.197Z,5.20
2018-10-21T12:26:16.159Z,4.50
2018-10-21T12:27:16.145Z,6.70
2018-10-21T12:28:16.281Z,4.60
2018-10-21T12:29:16.172Z,6.00
2018-10-21T12:30:16.115Z,4.40
2018-10-21T12:31:16.211Z,3.20
2018-10-21T12:32:16.088Z,4.20
2018-10-21T12:33:16.078Z,3.90
2018-10-21T12:34:16.120Z,4.80
2018-10-21T12:35:16.161Z,4.80
2018-10-21T12:36:16.047Z,3.40
2018-10-21T12:37:16.117Z,4.50
2018-10-21T12:38:16.018Z,4.00
2018-10-21T12:39:16.018Z,5.00
2018-10-21T12:40:16.009Z,3.40
2018-10-21T12:41:16.054Z,3.80
2018-10-21T12:42:16.028Z,4.60
2018-10-21T12:43:16.068Z,3.80
2018-10-21T12:44:15.962Z,3.30
2018-10-21T12:45:16.036Z,4.60
2018-10-21T12:46:16.020Z,3.90
2018-10-21T12:47:16.012Z,4.40
2018-10-21T12:48:15.927Z,3.40
2018-10-21T12:49:15.977Z,2.70
2018-10-21T12:50:15.898Z,2.10
2018-10-21T12:51:15.880Z,6.90
2018-10-21T12:52:15.903Z,5.00
2018-10-21T12:53:15.981Z,4.60
2018-10-21T12:54:15.954Z,4.00
2018-10-21T12:55:15.921Z,4.00
2018-10-21T12:56:15.829Z,2.80